Vliegveldwaarnemingen Nederland - (AUTO) METAR

Luchtvaartmeteorologische informatie voor operationeel gebruik en vluchtvoorbereiding is beschikbaar op www.luchtvaartmeteo.nl.

ZCZC
SA230625 EHKD     DE KOOY/DE KOOY   NLD   1 m.
METAR EHKD 230625Z AUTO 03008KT 360V060 9999 BKN071 OVC077 17/13
Q1020
BLU 04009KT 9999 FEW045=

ZCZC
SA230625 EHFD     F3-FB-1   NLD   50 m.
METAR EHFD 230625Z AUTO 03017KT 9999 NSC 10/09 Q1023 W///H///=

ZCZC
SA230625 EHAM     AMSTERDAM/SCHIPHOL   NLD   -3 m.
METAR EHAM 230625Z 09005KT 050V110 8000 -SHRA FEW060TCU 16/14 Q1019
NOSIG=

ZCZC
SA230625 EHVL     VLIELAND   NLD   10 m.
METAR EHVL 230625Z AUTO 07013KT 9999 SCT070 SCT088 16/12 Q1020 BLU=

ZCZC
SA230625 EHJR     K13-A   NLD   37 m.
METAR EHJR 230625Z AUTO 03025KT //// // ///////// 12/10 Q1021 RE//
W10/H14=

ZCZC
SA230625 EHLW     LEEUWARDEN/LEEUWARDEN   NLD   1 m.
METAR EHLW 230625Z AUTO 06009KT 020V090 9999 FEW054 SCT060 OVC080
15/13 Q1020
BLU 06008KT CAVOK RMK R05=

ZCZC
SA230625 EHDL     ARNHEM/DEELEN   NLD   48 m.
METAR EHDL 230625Z AUTO VRB03KT 9999 FEW015CB SCT057 BKN070 15/13
Q1018 REDZ BLU=

ZCZC
SA230625 EHGG     GRONINGEN/EELDE   NLD   5 m.
METAR EHGG 230625Z AUTO 04007KT 9999 NSC 16/12 Q1020 NOSIG=

ZCZC
SA230625 EHSC     LICHTEILAND GOEREE   NLD   22 m.
METAR EHSC 230625Z AUTO 03010KT 9000 ///////// 13/12 Q1019 W12/H10=

ZCZC
SA230625 EHSA     EURO PLATFORM   NLD   19 m.
METAR EHSA 230625Z AUTO 35014KT //// // ///////// 12/11 Q1020 RE//
W11/H12=

ZCZC
SA230625 EHWO     WOENSDRECHT/WOENSDRECHT   NLD   19 m.
METAR EHWO 230625Z AUTO 03003KT 330V060 2300 R07/2300U -RA BKN015CB
SCT067 OVC080 15/15 Q1018
YLO 04004KT 3500 SHRA SCT055CB BKN080=

ZCZC
SA230625 EHRD     ROTTERDAM/THE HAGUE AIRPORT   NLD   -5 m.
METAR EHRD 230625Z NIL=

ZCZC
SA230625 EHGR     GILZE-RIJEN/GILZE-RIJEN   NLD   14 m.
METAR EHGR 230625Z AUTO 01006KT 320V050 7000 -DZRA FEW015CB OVC061
16/15 Q1018
WHT 01007KT 8000 -DZ NSC TEMPO SCT050CB BKN060=

ZCZC
SA230625 EHEH     EINDHOVEN/EINDHOVEN   NLD   22 m.
METAR EHEH 230625Z AUTO 01006KT 340V040 9000 BR SCT069 OVC081 16/14
Q1018
BLU 03006KT 7000 -DZ NSC TEMPO SCT040CB BKN045=

ZCZC
SA230625 EHVK     VOLKEL/VOLKEL   NLD   21 m.
METAR EHVK 230625Z AUTO 36004KT 340V040 6000 -RA SCT015CB BKN067
OVC078 15/14 Q1018
WHT 01005KT CAVOK TEMPO 4000 SHRA SCT055CB BKN060=

ZCZC
SA230625 EHBK     MAASTRICHT/MAASTRICHT-AACHEN   NLD   114 m.
METAR EHBK 230625Z AUTO 05003KT 020V090 2500 BR SCT002 OVC004 15/14
Q1018 REDZ BECMG 3000 BKN040=

ZCZC
SA230625 EHFZ     F16-A   NLD   43 m.
METAR EHFZ 230625Z AUTO 04026KT 9999 NCD 12/10 Q1022 W///H///=

ZCZC
SA230625 EHKV     K14-FA-1C   NLD   41 m.
METAR EHKV 230625Z AUTO 02023KT 9999 NCD 12/11 Q1021 W///H///=

ZCZC
SA230625 EHMG     L9-FF-1   NLD   44 m.
METAR EHMG 230625Z AUTO 06022KT 9999 NCD 14/11 Q1021 W///H///=

ZCZC
SA230625 EHMA     AWG-1   NLD   40 m.
METAR EHMA 230625Z AUTO 08014KT 020V140 9999 NCD 15/11 Q1021
W///H///=

ZCZC
SA230625 EHDV     D15-FA-1   NLD   42 m.
METAR EHDV 230625Z AUTO 03023KT 6000 FEW001/// 10/09 Q1023 W///H///=

ZCZC
SA230625 EHAK     A12-CPP   NLD   48 m.
METAR EHAK 230625Z AUTO 03016KT 340V060 0500 DZ VV000 08/08 Q1025
W///H///=

ZCZC
SA230625 EHQE     HOORN-A   NLD   50 m.
METAR EHQE 230625Z AUTO 01021KT //// // ////// 13/11 Q1020 W///H///=

ZCZC
SA230625 EHJA     J6-A   NLD   45 m.
METAR EHJA 230625Z AUTO 03022KT 9999 NCD 11/09 Q//// W///H///=

ZCZC
SA230625 EHPG     P11-B   NLD   41 m.
METAR EHPG 230625Z AUTO 01013KT 330V050 9999 NCD 12/11 Q1020
W///H///=

ZCZC
SA230625 EHHW     BUITENGAATS/BG-OHVS2      42 m.
METAR EHHW 230625Z AUTO 07016KT 050V120 //// // NCD 14/08 Q1021 RE//
W///H///=

ZCZC
SA230625 EHFS     VLISSINGEN AWS   NLD   8 m.
METAR EHFS 230625Z AUTO 02007KT 9000 NSC 15/14 Q1019 W///H///=

23/05/2018 08.45 uur LT